Time;durP1;ratioP1;P1;durP2;ratioP2;P2;SDS_P1;SDS_P2;PMS_P1;PMS_P2;Temp;Humidity;BMP_temperature;BMP_pressure;BME280_temperature;BME280_humidity;BME280_pressure;Samples;Min_cycle;Max_cycle;Signal;HPM_P1;HPM_P2
2022/03/07 00:42:00;;;;;;;15.48;8.80;;;;;;;3.69;40.80;100647.41;5005605;28;20086;-82
2022/03/07 00:44:27;;;;;;;12.82;9.02;;;;;;;3.76;40.89;100648.81;5000407;28;20045;-81
2022/03/07 00:46:54;;;;;;;12.82;9.13;;;;;;;3.81;41.16;100638.94;5018948;28;20048;-81
2022/03/07 00:49:21;;;;;;;15.82;9.48;;;;;;;3.89;41.08;100642.06;5007036;28;21062;-81
2022/03/07 00:51:48;;;;;;;13.90;9.05;;;;;;;3.67;41.68;100646.63;5022000;28;20059;-81
2022/03/07 00:54:15;;;;;;;14.20;9.75;;;;;;;3.82;41.94;100645.06;5002876;28;20080;-81
2022/03/07 00:56:43;;;;;;;15.40;9.93;;;;;;;3.87;41.81;100646.53;4990662;28;20048;-81
2022/03/07 00:59:12;;;;;;;14.98;9.70;;;;;;;3.65;42.42;100656.34;4997333;28;20048;-82
2022/03/07 01:01:40;;;;;;;15.52;10.05;;;;;;;3.65;42.93;100649.31;4985635;28;20053;-81
2022/03/07 01:04:07;;;;;;;18.33;10.38;;;;;;;3.63;42.71;100640.66;5020526;28;20120;-81
2022/03/07 01:06:35;;;;;;;15.68;9.65;;;;;;;3.67;43.16;100651.88;5007667;28;20057;-81
2022/03/07 01:09:02;;;;;;;14.52;10.25;;;;;;;3.63;44.25;100653.78;5016904;28;20048;-80
2022/03/07 01:11:29;;;;;;;18.92;10.00;;;;;;;3.67;44.42;100650.09;5000836;28;20082;-81
2022/03/07 01:13:56;;;;;;;16.20;9.82;;;;;;;3.56;44.66;100654.16;5007215;28;20040;-81
2022/03/07 01:16:22;;;;;;;15.07;9.40;;;;;;;3.48;45.98;100652.72;4990904;28;20132;-80
2022/03/07 01:18:49;;;;;;;14.77;8.95;;;;;;;3.32;47.11;100656.13;5010781;28;20040;-81
2022/03/07 01:21:18;;;;;;;16.63;8.55;;;;;;;3.45;45.98;100665.16;4993820;28;20064;-81
2022/03/07 01:23:44;;;;;;;10.82;8.02;;;;;;;3.46;45.91;100657.22;5011257;28;20047;-80
2022/03/07 01:26:12;;;;;;;15.23;7.97;;;;;;;3.57;45.37;100653.25;5021713;28;20045;-80
2022/03/07 01:28:39;;;;;;;11.50;7.25;;;;;;;3.44;45.26;100648.56;4992563;28;20053;-80
2022/03/07 01:31:07;;;;;;;11.98;6.53;;;;;;;3.36;45.76;100645.44;5003420;28;20048;-81
2022/03/07 01:33:34;;;;;;;16.05;7.05;;;;;;;3.33;45.72;100647.31;4996467;28;20061;-81
2022/03/07 01:36:01;;;;;;;10.13;6.88;;;;;;;3.32;45.62;100640.38;5032184;28;20045;-81
2022/03/07 01:38:28;;;;;;;10.23;6.60;;;;;;;3.33;45.91;100647.31;5019208;28;20049;-82
2022/03/07 01:40:55;;;;;;;12.18;6.63;;;;;;;3.26;45.75;100644.16;5006568;28;20045;-81
2022/03/07 01:43:24;;;;;;;11.20;6.95;;;;;;;3.43;45.80;100643.34;5039963;28;20151;-81
2022/03/07 01:45:52;;;;;;;10.35;6.53;;;;;;;3.24;46.05;100649.44;5008348;28;20049;-81
2022/03/07 01:48:18;;;;;;;10.20;6.20;;;;;;;3.21;45.83;100643.50;5003718;28;20128;-82
2022/03/07 01:50:45;;;;;;;9.63;5.90;;;;;;;3.11;46.26;100652.69;5023326;28;20041;-82
2022/03/07 01:53:12;;;;;;;8.48;5.45;;;;;;;3.19;46.03;100638.31;5008475;28;20044;-81
2022/03/07 01:55:39;;;;;;;8.32;5.18;;;;;;;3.18;46.19;100648.84;4987181;28;20512;-81
2022/03/07 01:58:07;;;;;;;9.43;5.70;;;;;;;3.06;46.13;100644.19;4991183;28;20045;-81
2022/03/07 02:00:34;;;;;;;9.65;5.93;;;;;;;3.09;46.39;100638.78;5041882;28;20041;-81
2022/03/07 02:03:01;;;;;;;7.45;5.22;;;;;;;2.93;46.48;100642.09;5041368;28;20048;-82
2022/03/07 02:05:36;;;;;;;8.63;4.97;;;;;;;3.04;46.13;100642.47;5003128;28;20044;-81
2022/03/07 02:08:07;;;;;;;9.35;6.18;;;;;;;3.13;45.71;100638.59;5037631;28;20041;-81
2022/03/07 02:10:43;;;;;;;8.77;5.68;;;;;;;3.28;45.33;100636.19;5018076;28;20051;-81
2022/03/07 02:13:14;;;;;;;9.07;5.13;;;;;;;2.93;45.93;100636.84;5000754;28;20048;-82
2022/03/07 02:15:52;;;;;;;9.13;5.68;;;;;;;2.95;45.85;100637.63;5009375;28;20574;-81
2022/03/07 02:18:21;;;;;;;7.22;5.10;;;;;;;2.96;45.98;100647.19;5019912;28;20056;-81
2022/03/07 02:20:51;;;;;;;6.53;4.60;;;;;;;2.95;45.60;100636.75;5015978;28;20381;-81
2022/03/07 02:23:18;;;;;;;7.38;4.75;;;;;;;2.75;46.42;100633.25;4990028;28;20037;-81
2022/03/07 02:25:47;;;;;;;7.93;5.05;;;;;;;2.83;46.02;100625.06;4989103;28;20469;-82
2022/03/07 02:28:16;;;;;;;8.52;5.07;;;;;;;2.94;45.79;100621.94;5006465;28;20049;-81
2022/03/07 02:30:43;;;;;;;6.78;5.03;;;;;;;2.89;46.28;100621.31;5010312;28;20459;-81
2022/03/07 02:33:12;;;;;;;9.27;5.63;;;;;;;2.79;46.73;100626.09;5019759;28;20112;-81
2022/03/07 02:35:41;;;;;;;6.10;4.57;;;;;;;2.86;46.30;100621.44;5007570;28;20059;-81
2022/03/07 02:38:14;;;;;;;6.43;4.57;;;;;;;2.80;46.69;100622.56;5009634;28;20496;-81
2022/03/07 02:40:46;;;;;;;6.18;4.35;;;;;;;2.85;46.64;100622.34;4992781;28;20090;-81
2022/03/07 02:43:18;;;;;;;8.23;5.05;;;;;;;2.83;46.48;100630.31;5018867;28;20041;-81
2022/03/07 02:45:46;;;;;;;9.15;5.00;;;;;;;2.63;46.61;100628.53;5031440;28;20060;-81
2022/03/07 02:48:14;;;;;;;8.20;4.55;;;;;;;2.77;45.74;100635.78;5013052;28;20454;-81
2022/03/07 02:50:43;;;;;;;8.18;4.50;;;;;;;2.66;45.58;100628.41;5027142;28;20044;-81
2022/03/07 02:53:12;;;;;;;10.27;5.15;;;;;;;2.60;45.83;100632.13;5024207;28;20051;-81
2022/03/07 02:55:39;;;;;;;7.85;4.85;;;;;;;2.64;45.47;100632.00;5008770;28;20507;-81
2022/03/07 02:58:06;;;;;;;9.98;5.00;;;;;;;2.47;45.73;100628.34;5020755;28;20049;-81
2022/03/07 03:00:33;;;;;;;9.68;5.20;;;;;;;2.43;45.92;100628.53;5021785;28;20124;-81
2022/03/07 03:03:00;;;;;;;9.13;4.82;;;;;;;2.52;45.99;100629.00;5017539;28;20094;-81
2022/03/07 03:05:27;;;;;;;9.15;4.88;;;;;;;2.56;45.85;100634.97;5006107;28;20102;-81
2022/03/07 03:07:54;;;;;;;7.32;4.90;;;;;;;2.46;46.35;100634.47;5027339;28;20047;-81
2022/03/07 03:10:21;;;;;;;8.27;4.50;;;;;;;2.53;45.92;100635.94;5027203;28;20041;-82
2022/03/07 03:12:49;;;;;;;10.32;5.50;;;;;;;2.60;45.27;100634.75;5020773;28;20311;-81
2022/03/07 03:15:17;;;;;;;9.88;5.72;;;;;;;2.56;45.17;100637.56;5001658;28;20051;-81
2022/03/07 03:17:45;;;;;;;9.95;5.07;;;;;;;2.43;45.41;100636.41;5006444;28;20048;-81
2022/03/07 03:20:14;;;;;;;9.27;5.10;;;;;;;2.35;45.04;100642.81;5020286;28;20132;-81
2022/03/07 03:22:42;;;;;;;9.45;5.50;;;;;;;2.34;44.99;100650.72;4990483;28;20123;-81
2022/03/07 03:25:10;;;;;;;8.77;5.05;;;;;;;2.39;44.77;100630.41;5002115;28;20049;-81
2022/03/07 03:27:38;;;;;;;9.88;5.65;;;;;;;2.33;44.83;100633.28;5030347;28;20053;-81
2022/03/07 03:30:07;;;;;;;8.52;5.57;;;;;;;2.30;44.99;100634.28;5012166;28;20037;-82
2022/03/07 03:32:34;;;;;;;9.20;5.40;;;;;;;2.34;45.17;100648.97;5010566;28;20052;-82
2022/03/07 03:35:01;;;;;;;10.38;5.32;;;;;;;2.36;44.80;100635.78;5015525;28;20120;-81
2022/03/07 03:37:28;;;;;;;11.38;5.38;;;;;;;2.25;44.89;100641.47;5020251;28;20051;-81
2022/03/07 03:39:57;;;;;;;8.98;5.63;;;;;;;2.32;44.90;100629.84;5031612;28;20076;-82
2022/03/07 03:42:24;;;;;;;10.00;5.68;;;;;;;2.29;45.03;100635.22;5036293;28;20119;-81
2022/03/07 03:44:51;;;;;;;8.77;5.32;;;;;;;2.27;45.42;100636.19;5003353;28;20049;-81
2022/03/07 03:47:17;;;;;;;7.30;5.30;;;;;;;2.18;45.83;100638.25;5004911;28;20048;-81
2022/03/07 03:49:44;;;;;;;10.02;5.43;;;;;;;2.35;44.59;100634.09;5018712;28;20422;-82
2022/03/07 03:52:11;;;;;;;10.15;5.80;;;;;;;2.30;44.86;100631.66;5010941;28;20040;-81
2022/03/07 03:54:38;;;;;;;12.15;6.25;;;;;;;2.41;44.43;100633.81;5008835;28;20045;-81
2022/03/07 03:57:05;;;;;;;8.60;5.63;;;;;;;2.40;44.62;100634.75;5008034;28;20407;-81
2022/03/07 03:59:33;;;;;;;8.55;6.00;;;;;;;2.41;44.08;100638.22;5005545;28;20568;-81
2022/03/07 04:02:00;;;;;;;10.55;6.15;;;;;;;2.18;45.14;100647.88;5007546;28;20507;-81
2022/03/07 04:04:27;;;;;;;9.70;6.13;;;;;;;2.23;45.19;100650.31;5017706;28;20487;-82
2022/03/07 04:06:54;;;;;;;12.32;6.57;;;;;;;2.26;44.85;100648.41;5002643;28;20403;-81
2022/03/07 04:09:28;;;;;;;10.95;6.25;;;;;;;2.30;44.55;100646.53;5008937;28;20056;-81
2022/03/07 04:11:55;;;;;;;12.85;6.18;;;;;;;2.11;45.00;100641.19;5021992;28;20414;-81
2022/03/07 04:14:24;;;;;;;10.48;6.05;;;;;;;2.15;44.97;100648.84;5034951;28;20044;-81
2022/03/07 04:16:53;;;;;;;12.15;6.35;;;;;;;2.07;45.39;100653.56;4997463;28;20098;-81
2022/03/07 04:19:20;;;;;;;11.90;6.93;;;;;;;2.06;45.69;100651.00;5008892;28;20496;-81
2022/03/07 04:21:47;;;;;;;13.45;6.55;;;;;;;2.13;45.16;100649.84;5014965;28;20515;-81
2022/03/07 04:24:20;;;;;;;10.38;5.85;;;;;;;1.99;45.70;100660.03;5052691;28;20055;-81
2022/03/07 04:26:47;;;;;;;;;;;;;;;2.09;45.34;100656.13;5012626;28;20071;-81
2022/03/07 04:29:14;;;;;;;15.20;6.53;;;;;;;2.11;45.32;100641.19;4993722;28;19927;-81
2022/03/07 04:31:42;;;;;;;12.07;6.40;;;;;;;2.07;45.68;100647.47;5019469;28;20139;-82
2022/03/07 04:34:12;;;;;;;11.93;6.40;;;;;;;2.21;45.31;100657.38;5032490;28;20079;-81
2022/03/07 04:36:40;;;;;;;12.93;6.90;;;;;;;2.07;46.10;100653.56;5020300;28;20048;-81
2022/03/07 04:39:08;;;;;;;14.20;6.82;;;;;;;2.21;45.45;100655.59;4985441;28;20120;-81
2022/03/07 04:41:35;;;;;;;11.45;6.07;;;;;;;2.05;46.29;100655.38;5016736;28;20051;-81
2022/03/07 04:44:03;;;;;;;10.63;6.97;;;;;;;1.97;45.97;100659.22;5018719;28;20525;-81
2022/03/07 04:46:30;;;;;;;13.75;7.25;;;;;;;1.85;46.83;100653.53;4999756;28;20037;-81
2022/03/07 04:48:58;;;;;;;13.23;7.20;;;;;;;1.82;46.36;100674.63;5018486;28;20045;-81
2022/03/07 04:51:25;;;;;;;12.07;7.07;;;;;;;2.03;46.07;100672.06;5021322;28;20094;-82
2022/03/07 04:53:52;;;;;;;11.60;6.50;;;;;;;2.03;46.02;100665.06;5010677;28;20041;-81
2022/03/07 04:56:21;;;;;;;10.63;6.72;;;;;;;2.04;45.99;100677.25;5033509;28;20044;-81
2022/03/07 04:58:47;;;;;;;11.85;7.35;;;;;;;1.88;46.16;100674.41;5024414;28;20072;-81
2022/03/07 05:01:15;;;;;;;10.85;6.60;;;;;;;2.15;45.96;100680.28;4986384;28;20106;-82
2022/03/07 05:03:42;;;;;;;10.05;6.60;;;;;;;2.14;45.93;100675.13;5023162;28;20661;-81
2022/03/07 05:06:09;;;;;;;14.27;7.20;;;;;;;1.95;46.53;100677.63;5013865;28;20052;-81
2022/03/07 05:08:39;;;;;;;13.02;7.68;;;;;;;1.93;46.84;100669.84;5033644;28;20040;-81
2022/03/07 05:11:06;;;;;;;12.02;7.15;;;;;;;1.97;46.34;100672.34;5019477;28;20060;-81
2022/03/07 05:13:35;;;;;;;14.45;7.78;;;;;;;2.11;46.16;100683.09;5035010;28;20041;-81
2022/03/07 05:16:03;;;;;;;15.18;8.02;;;;;;;2.07;46.14;100677.13;5013508;28;20065;-81
2022/03/07 05:18:30;;;;;;;12.73;7.80;;;;;;;2.04;46.28;100669.41;5035502;28;20388;-81
2022/03/07 05:20:57;;;;;;;10.48;6.55;;;;;;;2.02;45.91;100667.75;5036498;28;20053;-82
2022/03/07 05:23:30;;;;;;;;;;;;;;;1.87;46.21;100682.31;5015139;28;20463;-81
2022/03/07 05:25:57;;;;;;;15.05;8.32;;;;;;;1.84;46.27;100685.06;5020107;28;20019;-77
2022/03/07 05:28:23;;;;;;;15.68;8.00;;;;;;;1.71;46.41;100690.75;5021457;28;20555;-77
2022/03/07 05:30:52;;;;;;;13.45;7.82;;;;;;;1.59;47.01;100688.59;5018301;28;20052;-76
2022/03/07 05:33:19;;;;;;;16.35;8.35;;;;;;;1.83;46.48;100697.31;5022883;28;20052;-77
2022/03/07 05:35:46;;;;;;;16.08;8.07;;;;;;;1.76;46.65;100698.44;5001774;28;20495;-77
2022/03/07 05:38:17;;;;;;;18.92;9.00;;;;;;;1.74;46.91;100705.50;5035101;28;20052;-77
2022/03/07 05:40:44;;;;;;;12.68;7.97;;;;;;;1.83;46.36;100701.66;5050527;28;20048;-77
2022/03/07 05:43:11;;;;;;;14.45;7.82;;;;;;;1.88;46.27;100718.94;5016870;28;20045;-77
2022/03/07 05:45:37;;;;;;;14.32;7.78;;;;;;;1.84;45.99;100701.63;5016740;28;20045;-77
2022/03/07 05:48:04;;;;;;;15.05;8.63;;;;;;;1.84;46.09;100709.47;5016326;28;20045;-76
2022/03/07 05:50:31;;;;;;;14.27;8.10;;;;;;;1.81;46.22;100709.59;5042963;28;20139;-77
2022/03/07 05:52:58;;;;;;;17.77;8.55;;;;;;;1.74;46.30;100701.09;5032279;28;20051;-77
2022/03/07 05:55:25;;;;;;;13.48;7.25;;;;;;;1.38;47.77;100705.09;5008878;28;20071;-77
2022/03/07 05:57:55;;;;;;;12.77;7.53;;;;;;;1.71;46.79;100703.00;5022765;28;20133;-77
2022/03/07 06:00:22;;;;;;;14.88;8.77;;;;;;;1.60;47.00;100702.53;5023519;28;20119;-77
2022/03/07 06:02:48;;;;;;;15.15;8.20;;;;;;;1.82;46.33;100713.91;5049751;28;20641;-76
2022/03/07 06:05:15;;;;;;;16.05;8.85;;;;;;;1.91;45.70;100710.09;5051324;28;20048;-77
2022/03/07 06:07:42;;;;;;;13.70;8.15;;;;;;;1.79;46.41;100707.94;5018096;28;20049;-76
2022/03/07 06:10:09;;;;;;;15.00;8.25;;;;;;;1.76;46.32;100700.22;5029295;28;20055;-77
2022/03/07 06:12:36;;;;;;;17.25;8.77;;;;;;;1.95;45.61;100703.81;5010066;28;20048;-77
2022/03/07 06:15:04;;;;;;;15.98;8.05;;;;;;;1.67;46.26;100696.16;4989686;28;20045;-77
2022/03/07 06:17:31;;;;;;;18.10;8.85;;;;;;;1.71;46.32;100696.00;5005429;28;20144;-77
2022/03/07 06:19:58;;;;;;;14.57;8.15;;;;;;;1.50;47.61;100705.50;5011834;28;20046;-76
2022/03/07 06:22:24;;;;;;;18.08;8.00;;;;;;;1.70;46.79;100706.50;5015021;28;20411;-76
2022/03/07 06:24:52;;;;;;;16.55;7.72;;;;;;;1.64;46.86;100714.59;5038103;28;20403;-77
2022/03/07 06:27:18;;;;;;;15.57;7.85;;;;;;;1.73;46.48;100693.28;5052695;28;20052;-77
2022/03/07 06:29:45;;;;;;;15.63;8.45;;;;;;;1.65;46.81;100693.59;5002786;28;20095;-76
2022/03/07 06:32:12;;;;;;;14.75;7.82;;;;;;;1.75;46.83;100717.66;5030801;28;20041;-77
2022/03/07 06:34:38;;;;;;;13.20;7.85;;;;;;;1.62;46.58;100700.72;5003847;28;20055;-77
2022/03/07 06:37:05;;;;;;;18.42;9.35;;;;;;;1.54;46.78;100705.38;5025793;28;20053;-77
2022/03/07 06:39:32;;;;;;;17.08;8.20;;;;;;;1.56;47.14;100716.66;5029519;28;20083;-77
2022/03/07 06:41:59;;;;;;;13.55;8.02;;;;;;;1.60;46.60;100713.84;5023127;28;20045;-77
2022/03/07 06:44:25;;;;;;;11.38;6.70;;;;;;;1.60;46.41;100715.63;5033859;28;20045;-77
2022/03/07 06:46:52;;;;;;;15.57;8.05;;;;;;;1.52;46.77;100714.13;5032247;28;20053;-77
2022/03/07 06:49:19;;;;;;;14.07;7.95;;;;;;;1.68;46.22;100727.53;5033238;28;20056;-77
2022/03/07 06:51:46;;;;;;;14.27;7.70;;;;;;;1.65;46.73;100722.38;5020650;28;20049;-77
2022/03/07 06:54:12;;;;;;;15.35;8.05;;;;;;;1.67;46.84;100730.19;5020911;28;20052;-77
2022/03/07 06:56:39;;;;;;;17.63;8.55;;;;;;;1.64;46.80;100725.94;5022137;28;20048;-77
2022/03/07 06:59:06;;;;;;;15.07;7.50;;;;;;;1.65;47.10;100729.41;5032128;28;20106;-76
2022/03/07 07:01:33;;;;;;;15.30;8.15;;;;;;;1.79;46.65;100736.75;5009698;28;20135;-77
2022/03/07 07:04:00;;;;;;;16.63;7.88;;;;;;;1.70;47.00;100743.16;5022428;28;20056;-77
2022/03/07 07:06:27;;;;;;;15.20;7.55;;;;;;;1.71;46.80;100737.03;5018529;28;20048;-76
2022/03/07 07:08:54;;;;;;;14.77;8.10;;;;;;;1.68;46.82;100742.38;5020841;28;20118;-77
2022/03/07 07:11:21;;;;;;;15.40;8.35;;;;;;;1.87;46.62;100743.38;5040906;28;20098;-76
2022/03/07 07:13:48;;;;;;;13.82;7.18;;;;;;;1.74;46.88;100748.25;5038320;28;20564;-76
2022/03/07 07:16:14;;;;;;;13.55;7.97;;;;;;;1.62;47.51;100740.84;5016336;28;20126;-77
2022/03/07 07:18:42;;;;;;;15.85;8.40;;;;;;;1.75;46.71;100743.84;5018620;28;20055;-77
2022/03/07 07:21:09;;;;;;;15.00;8.85;;;;;;;1.77;46.82;100746.41;5018032;28;20399;-78
2022/03/07 07:23:37;;;;;;;16.15;8.57;;;;;;;1.71;46.69;100735.25;5031980;28;20044;-79
2022/03/07 07:26:05;;;;;;;13.85;7.95;;;;;;;1.64;47.37;100746.88;5014685;28;20537;-79
2022/03/07 07:28:32;;;;;;;13.55;7.97;;;;;;;1.89;46.97;100751.19;5018697;28;20067;-77
2022/03/07 07:30:58;;;;;;;12.80;6.90;;;;;;;1.56;47.42;100754.16;5001677;28;20080;-78
2022/03/07 07:33:25;;;;;;;15.77;8.23;;;;;;;1.55;47.73;100757.66;5030265;28;20700;-77
2022/03/07 07:35:52;;;;;;;16.95;8.85;;;;;;;1.72;47.59;100757.06;5032435;28;20055;-78
2022/03/07 07:38:21;;;;;;;15.60;8.40;;;;;;;1.57;47.43;100755.00;5021184;28;20054;-77
2022/03/07 07:40:49;;;;;;;12.95;8.13;;;;;;;1.64;47.47;100762.56;5024920;28;20102;-77
2022/03/07 07:43:16;;;;;;;13.82;8.60;;;;;;;1.74;47.23;100765.72;5022080;28;20716;-79
2022/03/07 07:45:43;;;;;;;14.90;8.23;;;;;;;1.64;47.23;100761.72;5034157;28;20045;-77
2022/03/07 07:48:10;;;;;;;15.13;8.45;;;;;;;1.55;48.20;100767.28;5055728;28;20051;-77
2022/03/07 07:50:36;;;;;;;14.15;8.20;;;;;;;1.80;47.84;100773.34;5027576;28;20059;-78
2022/03/07 07:53:03;;;;;;;15.48;8.40;;;;;;;1.65;47.69;100773.91;5018296;28;20140;-77
2022/03/07 07:55:30;;;;;;;13.05;8.27;;;;;;;1.73;47.25;100785.81;5025333;28;20404;-77
2022/03/07 07:57:57;;;;;;;14.95;8.27;;;;;;;1.71;47.57;100784.16;5034820;28;20079;-77
2022/03/07 08:00:24;;;;;;;13.48;7.85;;;;;;;1.69;47.47;100776.34;5026256;28;20099;-78
2022/03/07 08:02:51;;;;;;;15.10;9.07;;;;;;;1.67;47.50;100800.88;5011884;28;20128;-79
2022/03/07 08:05:18;;;;;;;16.13;8.80;;;;;;;1.61;47.42;100803.72;5005687;28;20814;-79
2022/03/07 08:07:46;;;;;;;15.13;9.07;;;;;;;1.74;47.63;100800.59;5025799;28;20123;-79
2022/03/07 08:10:15;;;;;;;13.10;8.00;;;;;;;1.64;47.38;100780.91;5020163;28;20071;-77
2022/03/07 08:12:44;;;;;;;13.07;8.82;;;;;;;1.46;47.81;100794.66;5026632;28;20040;-77
2022/03/07 08:15:16;;;;;;;16.35;8.63;;;;;;;1.70;47.06;100782.44;5027544;28;20044;-77
2022/03/07 08:17:49;;;;;;;17.98;8.45;;;;;;;1.70;47.11;100790.28;5018876;28;20135;-77
2022/03/07 08:20:18;;;;;;;16.08;9.25;;;;;;;1.63;47.40;100792.28;5012303;28;20040;-77
2022/03/07 08:22:45;;;;;;;14.00;8.00;;;;;;;1.67;47.77;100786.03;5013013;28;20043;-77
2022/03/07 08:25:12;;;;;;;20.48;9.43;;;;;;;1.79;47.19;100782.13;5024318;28;20528;-77
2022/03/07 08:27:40;;;;;;;14.32;9.00;;;;;;;2.01;47.00;100789.16;5036346;28;20099;-77
2022/03/07 08:30:12;;;;;;;16.30;9.95;;;;;;;1.93;46.61;100789.44;5011899;28;20040;-77
2022/03/07 08:32:40;;;;;;;15.82;8.88;;;;;;;1.84;46.48;100790.66;5003793;28;20052;-77
2022/03/07 08:35:09;;;;;;;14.18;8.10;;;;;;;1.87;46.82;100793.16;5009181;28;20555;-77
2022/03/07 08:37:41;;;;;;;15.40;10.07;;;;;;;1.98;45.38;100792.75;5038067;28;20045;-80
2022/03/07 08:40:09;;;;;;;14.60;9.70;;;;;;;1.92;46.08;100809.56;5034795;28;20041;-77
2022/03/07 08:42:36;;;;;;;13.23;8.93;;;;;;;2.02;45.55;100811.84;5015246;28;20041;-78
2022/03/07 08:45:07;;;;;;;18.98;9.27;;;;;;;1.87;44.34;100827.19;4997621;28;21054;-78
2022/03/07 08:47:36;;;;;;;18.33;10.55;;;;;;;2.03;44.52;100811.75;4999335;28;20102;-78
2022/03/07 08:50:05;;;;;;;16.00;9.50;;;;;;;1.77;44.37;100812.72;5035752;28;20045;-77
2022/03/07 08:52:32;;;;;;;18.70;10.10;;;;;;;1.99;44.61;100802.31;5024085;28;20123;-78
2022/03/07 08:54:59;;;;;;;17.92;10.40;;;;;;;1.98;44.81;100812.84;5031268;28;20519;-78
2022/03/07 08:57:26;;;;;;;16.58;10.90;;;;;;;2.04;44.78;100833.59;5003601;28;20057;-78
2022/03/07 08:59:52;;;;;;;18.25;9.73;;;;;;;2.12;44.03;100821.06;5030581;28;20523;-78
2022/03/07 09:02:19;;;;;;;17.60;10.48;;;;;;;2.08;43.59;100832.56;5032944;28;20045;-78
2022/03/07 09:04:50;;;;;;;18.10;9.80;;;;;;;1.83;42.87;100833.47;5018610;28;20044;-78
2022/03/07 09:07:17;;;;;;;21.08;9.73;;;;;;;1.94;43.63;100827.84;4988756;28;20542;-79
2022/03/07 09:09:44;;;;;;;17.63;10.80;;;;;;;2.13;42.48;100841.94;5001367;28;20450;-78
2022/03/07 09:12:11;;;;;;;16.30;8.77;;;;;;;1.95;43.44;100845.25;5036028;28;20371;-78
2022/03/07 09:14:37;;;;;;;17.73;9.82;;;;;;;1.92;42.53;100843.59;4986232;28;20051;-77
2022/03/07 09:17:04;;;;;;;16.02;10.10;;;;;;;1.90;42.45;100836.72;5015330;28;20041;-78
2022/03/07 09:19:32;;;;;;;19.67;10.25;;;;;;;1.88;43.32;100835.91;5018726;28;20060;-78
2022/03/07 09:22:00;;;;;;;16.80;9.43;;;;;;;1.81;43.45;100832.66;4992738;28;20044;-78
2022/03/07 09:24:29;;;;;;;15.52;9.55;;;;;;;1.99;43.92;100835.53;5053129;28;20041;-78
2022/03/07 09:26:55;;;;;;;15.80;10.20;;;;;;;2.18;43.56;100839.16;5016713;28;20059;-78
2022/03/07 09:29:24;;;;;;;17.60;9.85;;;;;;;2.11;43.13;100848.16;5033645;28;20045;-77
2022/03/07 09:31:51;;;;;;;17.83;10.50;;;;;;;1.94;42.70;100841.78;5030684;28;20056;-77
2022/03/07 09:34:18;;;;;;;13.02;8.82;;;;;;;1.81;42.53;100835.28;5008797;28;20044;-77
2022/03/07 09:36:45;;;;;;;15.52;9.30;;;;;;;1.98;42.82;100841.66;5027203;28;20040;-79
2022/03/07 09:39:12;;;;;;;19.73;10.55;;;;;;;2.22;43.15;100842.53;5017483;28;20384;-79
2022/03/07 09:41:42;;;;;;;19.73;11.05;;;;;;;1.93;42.78;100861.03;5007889;28;20432;-76
2022/03/07 09:44:09;;;;;;;17.25;10.30;;;;;;;2.17;43.11;100850.56;5001204;28;20037;-77
2022/03/07 09:46:37;;;;;;;16.35;10.40;;;;;;;2.13;43.76;100834.09;5021344;28;20119;-77
2022/03/07 09:49:03;;;;;;;16.02;9.85;;;;;;;2.14;43.68;100833.19;5023428;28;20041;-78
2022/03/07 09:51:30;;;;;;;17.52;10.50;;;;;;;2.17;42.81;100837.47;5011372;28;20048;-77
2022/03/07 09:53:57;;;;;;;21.55;11.73;;;;;;;2.17;43.56;100851.41;5022643;28;20045;-77
2022/03/07 09:56:28;;;;;;;17.83;10.40;;;;;;;2.22;43.53;100847.78;4999185;28;20044;-77
2022/03/07 09:58:55;;;;;;;18.67;11.27;;;;;;;2.25;43.49;100840.63;5020582;28;20385;-78
2022/03/07 10:01:21;;;;;;;19.17;11.75;;;;;;;2.53;41.15;100832.56;5032343;28;20497;-77
2022/03/07 10:03:50;;;;;;;16.33;10.20;;;;;;;2.35;42.42;100835.91;5024905;28;20040;-79
2022/03/07 10:06:18;;;;;;;18.33;11.05;;;;;;;2.36;42.21;100822.72;5017267;28;20562;-77
2022/03/07 10:08:56;;;;;;;18.52;10.82;;;;;;;2.36;43.02;100830.59;5020572;28;20519;-80
2022/03/07 10:11:23;;;;;;;18.05;10.38;;;;;;;2.45;42.28;100808.44;5019071;28;20134;-76
2022/03/07 10:13:52;;;;;;;19.15;10.73;;;;;;;2.59;40.95;100834.09;5018808;28;20053;-77
2022/03/07 10:16:20;;;;;;;17.52;11.70;;;;;;;2.55;40.52;100840.38;5017175;28;20041;-77
2022/03/07 10:18:49;;;;;;;21.05;11.48;;;;;;;2.43;40.04;100833.00;5012269;28;20053;-80
2022/03/07 10:21:27;;;;;;;21.02;11.90;;;;;;;2.41;41.11;100834.81;5021282;28;20045;-77
2022/03/07 10:23:54;;;;;;;20.67;11.25;;;;;;;2.50;41.98;100813.50;5014341;28;20076;-77
2022/03/07 10:26:22;;;;;;;27.23;14.32;;;;;;;2.60;40.75;100839.28;5017512;28;20119;-76
2022/03/07 10:28:55;;;;;;;20.23;12.05;;;;;;;2.55;41.77;100836.00;5023818;28;20048;-76
2022/03/07 10:31:45;;;;;;;20.33;12.25;;;;;;;2.65;41.42;100819.91;4965571;28;20044;-76
2022/03/07 10:34:12;;;;;;;27.83;15.80;;;;;;;2.70;39.84;100833.69;5014308;28;20052;-76
2022/03/07 10:36:43;;;;;;;23.27;13.52;;;;;;;2.59;40.67;100826.22;5033009;28;20041;-76
2022/03/07 10:39:13;;;;;;;22.77;12.98;;;;;;;2.59;41.67;100831.47;5008591;28;20419;-76
2022/03/07 10:41:41;;;;;;;20.00;12.60;;;;;;;2.61;40.59;100813.91;5018093;28;20118;-76
2022/03/07 10:44:31;;;;;;;21.42;12.27;;;;;;;2.71;40.40;100811.78;5016630;28;20045;-77
2022/03/07 10:47:07;;;;;;;20.30;13.10;;;;;;;2.68;39.35;100827.63;5035877;28;20051;-77
2022/03/07 10:49:35;;;;;;;22.00;12.85;;;;;;;2.60;40.20;100823.56;4991749;28;20049;-77
2022/03/07 10:52:03;;;;;;;18.65;11.63;;;;;;;2.63;40.94;100816.47;5015682;28;20131;-76
2022/03/07 10:54:36;;;;;;;21.33;12.65;;;;;;;2.52;40.05;100825.63;5017909;28;20059;-77
2022/03/07 10:57:03;;;;;;;24.00;13.70;;;;;;;2.70;39.97;100828.44;5015097;28;20064;-77
2022/03/07 10:59:32;;;;;;;24.77;13.10;;;;;;;2.76;39.67;100823.78;5017090;28;20128;-76
2022/03/07 11:02:14;;;;;;;22.38;14.70;;;;;;;2.90;39.08;100830.22;5005657;28;20120;-77
2022/03/07 11:04:42;;;;;;;22.13;12.48;;;;;;;2.57;39.47;100823.69;5020864;28;20044;-76
2022/03/07 11:07:09;;;;;;;21.02;13.40;;;;;;;2.64;39.65;100816.41;5001986;28;20044;-77
2022/03/07 11:09:37;;;;;;;21.80;12.38;;;;;;;2.70;40.02;100815.31;5020000;28;20118;-77
2022/03/07 11:12:04;;;;;;;22.45;12.27;;;;;;;2.78;39.28;100813.25;5023548;28;20068;-76
2022/03/07 11:14:31;;;;;;;19.73;11.43;;;;;;;2.75;39.70;100827.34;5028710;28;20068;-77
2022/03/07 11:16:58;;;;;;;18.75;10.90;;;;;;;2.75;40.00;100816.84;5020786;28;20120;-77
2022/03/07 11:19:27;;;;;;;18.50;11.65;;;;;;;2.78;40.31;100824.59;5024707;28;20367;-77
2022/03/07 11:21:55;;;;;;;21.73;12.10;;;;;;;2.76;39.58;100804.56;5012274;28;20523;-77
2022/03/07 11:24:24;;;;;;;21.20;12.85;;;;;;;2.87;39.87;100802.34;5036371;28;20102;-77
2022/03/07 11:26:53;;;;;;;18.33;11.93;;;;;;;2.92;39.75;100810.03;5032229;28;20049;-76
2022/03/07 11:29:33;;;;;;;19.33;11.68;;;;;;;2.88;40.06;100804.09;5036967;28;20049;-77
2022/03/07 11:32:02;;;;;;;19.00;12.25;;;;;;;2.79;39.62;100807.06;4989195;28;20090;-77
2022/03/07 11:34:29;;;;;;;19.20;11.68;;;;;;;2.90;40.29;100796.13;5018917;28;20045;-77
2022/03/07 11:36:55;;;;;;;18.58;11.25;;;;;;;2.87;40.86;100781.38;5022640;28;20136;-77
2022/03/07 11:39:36;;;;;;;17.88;11.43;;;;;;;2.93;40.91;100772.41;5022981;28;20404;-77
2022/03/07 11:42:13;;;;;;;18.65;10.70;;;;;;;2.95;40.91;100768.81;4999133;28;20061;-77
2022/03/07 11:44:42;;;;;;;17.65;11.75;;;;;;;3.13;41.18;100755.81;4989800;28;20052;-77
2022/03/07 11:47:14;;;;;;;20.05;12.38;;;;;;;3.15;40.18;100770.56;5029206;28;20048;-78
2022/03/07 11:49:41;;;;;;;24.17;12.02;;;;;;;3.23;40.22;100765.88;5053019;28;20053;-77
2022/03/07 11:52:14;;;;;;;20.35;12.68;;;;;;;3.15;40.38;100762.69;5028578;28;20055;-77
2022/03/07 11:54:54;;;;;;;19.38;11.82;;;;;;;3.14;41.04;100757.53;5026369;28;20053;-78
2022/03/07 11:57:37;;;;;;;19.48;11.82;;;;;;;3.22;40.78;100755.41;5022489;28;20052;-78
2022/03/07 12:00:09;;;;;;;20.40;12.20;;;;;;;3.24;41.13;100746.56;5029771;28;20048;-77
2022/03/07 12:02:44;;;;;;;18.85;11.65;;;;;;;3.32;41.33;100742.75;5044747;28;20067;-77
2022/03/07 12:05:32;;;;;;;19.67;13.40;;;;;;;3.32;39.49;100750.63;5007403;28;20033;-77
2022/03/07 12:08:15;;;;;;;21.00;12.88;;;;;;;3.30;40.23;100749.84;5004704;28;20880;-79
2022/03/07 12:11:02;;;;;;;21.67;12.23;;;;;;;3.32;39.72;100724.38;4995270;28;20060;-79